createdAt,value
2023-08-29T00:01:11.359Z,13.09
2023-08-29T00:03:38.393Z,13.11
2023-08-29T00:06:06.424Z,13.15
2023-08-29T00:08:34.266Z,13.17
2023-08-29T00:11:03.559Z,13.19
2023-08-29T00:13:31.039Z,13.20
2023-08-29T00:15:58.295Z,13.23
2023-08-29T00:18:25.310Z,13.24
2023-08-29T00:20:53.080Z,13.24
2023-08-29T00:23:19.929Z,13.25
2023-08-29T00:25:49.627Z,13.25
2023-08-29T00:28:16.577Z,13.27
2023-08-29T00:30:45.213Z,13.30
2023-08-29T00:33:12.472Z,13.34
2023-08-29T00:35:40.604Z,13.35
2023-08-29T00:38:07.938Z,13.35
2023-08-29T00:40:35.903Z,13.33
2023-08-29T00:43:06.119Z,13.31
2023-08-29T00:45:35.515Z,13.27
2023-08-29T00:48:02.625Z,13.23
2023-08-29T00:50:30.939Z,13.21
2023-08-29T00:53:00.244Z,13.18
2023-08-29T00:55:27.593Z,13.17
2023-08-29T00:57:57.769Z,13.17
2023-08-29T01:00:28.820Z,13.17
2023-08-29T01:02:57.471Z,13.16
2023-08-29T01:05:24.608Z,13.17
2023-08-29T01:07:59.154Z,13.18
2023-08-29T01:10:38.343Z,13.15
2023-08-29T01:13:26.417Z,13.15
2023-08-29T01:15:57.135Z,13.15
2023-08-29T01:18:25.583Z,13.19
2023-08-29T01:20:57.043Z,13.24
2023-08-29T01:23:32.688Z,13.23
2023-08-29T01:26:14.700Z,13.28
2023-08-29T01:28:44.082Z,13.31
2023-08-29T01:31:11.650Z,13.30
2023-08-29T01:33:43.392Z,13.27
2023-08-29T01:36:10.246Z,13.22
2023-08-29T01:38:37.074Z,13.22
2023-08-29T01:41:03.932Z,13.17
2023-08-29T01:43:30.860Z,13.14
2023-08-29T01:45:57.884Z,13.09
2023-08-29T01:48:25.645Z,13.05
2023-08-29T01:50:53.741Z,13.01
2023-08-29T01:53:20.705Z,13.02
2023-08-29T01:55:48.857Z,13.03
2023-08-29T01:58:16.521Z,13.03
2023-08-29T02:00:43.786Z,13.03
2023-08-29T02:03:10.814Z,13.04
2023-08-29T02:05:37.858Z,13.03
2023-08-29T02:08:05.260Z,12.99
2023-08-29T02:10:33.794Z,12.94
2023-08-29T02:13:00.637Z,12.93
2023-08-29T02:15:27.586Z,12.92
2023-08-29T02:17:54.948Z,12.93
2023-08-29T02:20:21.980Z,12.91
2023-08-29T02:22:48.818Z,12.88
2023-08-29T02:25:15.765Z,12.87
2023-08-29T02:27:42.602Z,12.88
2023-08-29T02:30:11.083Z,12.89
2023-08-29T02:32:39.326Z,12.89
2023-08-29T02:35:07.806Z,12.87
2023-08-29T02:37:35.603Z,12.85
2023-08-29T02:40:06.991Z,12.83
2023-08-29T02:42:35.839Z,12.85
2023-08-29T02:45:06.784Z,12.87
2023-08-29T02:47:33.782Z,12.88
2023-08-29T02:50:00.672Z,12.91
2023-08-29T02:52:27.707Z,12.94
2023-08-29T02:54:55.066Z,12.96
2023-08-29T02:57:21.905Z,12.98
2023-08-29T02:59:48.743Z,12.98
2023-08-29T03:02:15.687Z,12.99
2023-08-29T03:04:43.044Z,12.99
2023-08-29T03:07:10.289Z,12.99
2023-08-29T03:09:37.538Z,12.99
2023-08-29T03:12:05.718Z,12.99
2023-08-29T03:14:33.079Z,13.01
2023-08-29T03:17:00.218Z,13.02
2023-08-29T03:19:27.465Z,13.02
2023-08-29T03:21:54.265Z,13.04
2023-08-29T03:24:21.149Z,13.04
2023-08-29T03:26:47.992Z,13.05
2023-08-29T03:29:15.035Z,13.06
2023-08-29T03:31:42.597Z,13.08
2023-08-29T03:34:09.642Z,13.09
2023-08-29T03:36:36.787Z,13.11
2023-08-29T03:39:03.938Z,13.13
2023-08-29T03:41:31.010Z,13.17
2023-08-29T03:43:57.928Z,13.18
2023-08-29T03:46:24.803Z,13.19
2023-08-29T03:48:52.119Z,13.21
2023-08-29T03:51:19.779Z,13.24
2023-08-29T03:53:46.636Z,13.28
2023-08-29T03:56:14.295Z,13.30
2023-08-29T03:58:42.557Z,13.32
2023-08-29T04:01:12.284Z,13.34
2023-08-29T04:03:39.577Z,13.39
2023-08-29T04:06:07.483Z,13.41
2023-08-29T04:08:34.335Z,13.42
2023-08-29T04:11:04.349Z,13.42
2023-08-29T04:13:31.183Z,13.42
2023-08-29T04:16:04.549Z,13.42
2023-08-29T04:18:32.973Z,13.43
2023-08-29T04:21:00.206Z,13.46
2023-08-29T04:23:27.253Z,13.47
2023-08-29T04:25:59.620Z,13.49
2023-08-29T04:28:27.693Z,13.51
2023-08-29T04:30:55.252Z,13.51
2023-08-29T04:33:23.336Z,13.52
2023-08-29T04:35:52.410Z,13.52
2023-08-29T04:38:19.765Z,13.51
2023-08-29T04:40:46.548Z,13.51
2023-08-29T04:43:13.557Z,13.51
2023-08-29T04:45:41.227Z,13.52
2023-08-29T04:48:08.473Z,13.53
2023-08-29T04:50:36.326Z,13.54
2023-08-29T04:53:04.506Z,13.54
2023-08-29T04:55:31.752Z,13.54
2023-08-29T04:57:59.205Z,13.57
2023-08-29T05:00:26.150Z,13.59
2023-08-29T05:02:53.181Z,13.62
2023-08-29T05:05:20.147Z,13.64
2023-08-29T05:07:47.299Z,13.67
2023-08-29T05:10:14.333Z,13.70
2023-08-29T05:12:42.096Z,13.70
2023-08-29T05:15:09.671Z,13.72
2023-08-29T05:17:37.135Z,13.76
2023-08-29T05:20:05.332Z,13.80
2023-08-29T05:22:32.227Z,13.82
2023-08-29T05:24:59.066Z,13.84
2023-08-29T05:27:26.011Z,13.86
2023-08-29T05:29:52.950Z,13.88
2023-08-29T05:32:19.804Z,13.89
2023-08-29T05:34:46.740Z,13.91
2023-08-29T05:37:13.583Z,13.88
2023-08-29T05:39:40.457Z,13.89
2023-08-29T05:42:07.363Z,13.93
2023-08-29T05:44:34.207Z,13.94
2023-08-29T05:47:01.253Z,13.96
2023-08-29T05:49:28.298Z,13.98
2023-08-29T05:51:55.241Z,13.98
2023-08-29T05:54:22.185Z,13.99
2023-08-29T05:56:49.028Z,14.00
2023-08-29T05:59:16.178Z,14.01
2023-08-29T06:01:43.123Z,14.00
2023-08-29T06:04:09.965Z,13.99
2023-08-29T06:06:40.692Z,13.98
2023-08-29T06:09:11.435Z,13.97
2023-08-29T06:11:38.265Z,13.96
2023-08-29T06:14:05.130Z,13.95
2023-08-29T06:16:32.162Z,13.94
2023-08-29T06:18:59.326Z,13.95
2023-08-29T06:21:26.352Z,13.97
2023-08-29T06:23:53.357Z,13.98
2023-08-29T06:26:20.748Z,13.97
2023-08-29T06:28:47.996Z,13.96
2023-08-29T06:31:15.459Z,13.94
2023-08-29T06:33:42.398Z,13.91
2023-08-29T06:36:09.344Z,13.92
2023-08-29T06:38:37.511Z,13.93
2023-08-29T06:41:05.484Z,13.93
2023-08-29T06:43:32.525Z,13.95
2023-08-29T06:45:59.443Z,13.96
2023-08-29T06:48:26.618Z,13.96
2023-08-29T06:50:53.969Z,13.98
2023-08-29T06:53:20.809Z,14.00
2023-08-29T06:55:47.653Z,14.03
2023-08-29T06:58:14.800Z,14.08
2023-08-29T07:00:41.753Z,14.09
2023-08-29T07:03:08.927Z,14.10
2023-08-29T07:05:37.068Z,14.11
2023-08-29T07:08:05.409Z,14.10
2023-08-29T07:10:32.803Z,14.12
2023-08-29T07:12:59.637Z,14.16
2023-08-29T07:15:26.705Z,14.18
2023-08-29T07:17:54.731Z,14.19
2023-08-29T07:20:21.958Z,14.21
2023-08-29T07:22:48.951Z,14.23
2023-08-29T07:25:18.760Z,14.26
2023-08-29T07:27:45.601Z,14.27
2023-08-29T07:30:16.351Z,14.30
2023-08-29T07:32:44.840Z,14.32
2023-08-29T07:35:11.857Z,14.35
2023-08-29T07:37:38.807Z,14.37
2023-08-29T07:40:06.311Z,14.41
2023-08-29T07:42:33.215Z,14.42
2023-08-29T07:45:00.679Z,14.42
2023-08-29T07:47:27.960Z,14.43
2023-08-29T07:49:54.864Z,14.44
2023-08-29T07:52:21.692Z,14.47
2023-08-29T07:54:48.641Z,14.49
2023-08-29T07:57:15.495Z,14.50
2023-08-29T07:59:42.629Z,14.54
2023-08-29T08:02:09.784Z,14.56
2023-08-29T08:04:37.453Z,14.59
2023-08-29T08:07:04.686Z,14.63
2023-08-29T08:09:32.245Z,14.67
2023-08-29T08:12:01.134Z,14.71
2023-08-29T08:14:28.078Z,14.78
2023-08-29T08:16:55.075Z,14.88
2023-08-29T08:19:21.969Z,14.96
2023-08-29T08:21:51.111Z,14.99
2023-08-29T08:24:18.409Z,15.01
2023-08-29T08:26:45.403Z,15.03
2023-08-29T08:29:12.300Z,15.05
2023-08-29T08:31:39.389Z,15.06
2023-08-29T08:34:06.209Z,15.06
2023-08-29T08:36:33.434Z,15.07
2023-08-29T08:39:00.289Z,15.07
2023-08-29T08:41:27.222Z,15.05
2023-08-29T08:43:56.038Z,15.03
2023-08-29T08:46:23.045Z,15.03
2023-08-29T08:48:50.103Z,15.02
2023-08-29T08:51:20.628Z,15.04
2023-08-29T08:53:47.880Z,15.07
2023-08-29T08:56:15.026Z,15.08
2023-08-29T08:58:42.291Z,15.10
2023-08-29T09:01:09.178Z,15.12
2023-08-29T09:03:36.250Z,15.16
2023-08-29T09:06:03.313Z,15.23
2023-08-29T09:08:32.319Z,15.29
2023-08-29T09:11:02.637Z,15.37
2023-08-29T09:13:30.698Z,15.43
2023-08-29T09:16:01.992Z,15.48
2023-08-29T09:18:32.368Z,15.52
2023-08-29T09:21:01.257Z,15.55
2023-08-29T09:23:30.454Z,15.59
2023-08-29T09:26:00.383Z,15.64
2023-08-29T09:28:28.904Z,15.67
2023-08-29T09:30:57.035Z,15.69
2023-08-29T09:33:23.860Z,15.70
2023-08-29T09:35:50.905Z,15.72
2023-08-29T09:38:19.240Z,15.73
2023-08-29T09:40:49.747Z,15.75
2023-08-29T09:43:17.879Z,15.77
2023-08-29T09:45:55.314Z,15.75
2023-08-29T09:48:23.672Z,15.74
2023-08-29T09:50:51.610Z,15.73
2023-08-29T09:53:20.560Z,15.72
2023-08-29T09:55:50.314Z,15.73
2023-08-29T09:58:18.588Z,15.76
2023-08-29T10:00:46.343Z,15.79
2023-08-29T10:03:13.658Z,15.82
2023-08-29T10:05:45.070Z,15.85
2023-08-29T10:08:11.901Z,15.91
2023-08-29T10:10:43.896Z,15.96
2023-08-29T10:13:11.822Z,15.95
2023-08-29T10:15:43.704Z,15.94
2023-08-29T10:18:11.824Z,16.02
2023-08-29T10:20:40.535Z,16.07
2023-08-29T10:23:07.991Z,16.09
2023-08-29T10:25:37.189Z,16.20
2023-08-29T10:28:05.491Z,16.29
2023-08-29T10:30:33.022Z,16.31
2023-08-29T10:33:02.047Z,16.28
2023-08-29T10:35:32.438Z,16.24
2023-08-29T10:38:11.341Z,16.20
2023-08-29T10:40:40.659Z,16.17
2023-08-29T10:43:24.225Z,16.14
2023-08-29T10:46:00.180Z,16.11
2023-08-29T10:48:30.888Z,16.08
2023-08-29T10:51:22.544Z,16.07
2023-08-29T10:53:54.461Z,16.05
2023-08-29T10:56:27.999Z,15.99
2023-08-29T10:58:56.176Z,15.93
2023-08-29T11:01:29.191Z,15.91
2023-08-29T11:03:57.461Z,15.83
2023-08-29T11:06:26.182Z,15.76
2023-08-29T11:09:21.593Z,15.71
2023-08-29T11:12:08.424Z,15.71
2023-08-29T11:14:51.320Z,15.68
2023-08-29T11:17:23.790Z,15.65
2023-08-29T11:19:58.626Z,15.62
2023-08-29T11:22:28.941Z,15.59
2023-08-29T11:24:56.788Z,15.55
2023-08-29T11:27:25.435Z,15.52
2023-08-29T11:30:11.142Z,15.52
2023-08-29T11:32:50.394Z,15.53
2023-08-29T11:35:17.247Z,15.53
2023-08-29T11:37:44.212Z,15.54
2023-08-29T11:40:12.371Z,15.53
2023-08-29T11:43:12.669Z,15.51
2023-08-29T11:45:45.371Z,15.52
2023-08-29T11:48:42.742Z,15.53
2023-08-29T11:51:09.870Z,15.53
2023-08-29T11:53:38.048Z,15.53
2023-08-29T11:56:06.633Z,15.55
2023-08-29T11:58:36.028Z,15.57
2023-08-29T12:01:04.098Z,15.59
2023-08-29T12:03:35.224Z,15.60
2023-08-29T12:06:04.436Z,15.58
2023-08-29T12:08:40.292Z,15.57
2023-08-29T12:11:08.668Z,15.56
2023-08-29T12:13:36.842Z,15.55
2023-08-29T12:16:05.239Z,15.54
2023-08-29T12:18:33.392Z,15.56
2023-08-29T12:21:29.924Z,15.55
2023-08-29T12:24:09.464Z,15.56
2023-08-29T12:26:36.817Z,15.56
2023-08-29T12:29:03.969Z,15.56
2023-08-29T12:31:30.809Z,15.61
2023-08-29T12:33:57.652Z,15.65
2023-08-29T12:36:24.493Z,15.67
2023-08-29T12:38:51.433Z,15.73
2023-08-29T12:41:18.682Z,15.75
2023-08-29T12:43:45.741Z,15.79
2023-08-29T12:46:12.593Z,15.80
2023-08-29T12:48:39.516Z,15.80
2023-08-29T12:51:08.405Z,15.82
2023-08-29T12:53:35.357Z,15.85
2023-08-29T12:56:03.054Z,15.87
2023-08-29T12:58:29.951Z,15.90
2023-08-29T13:00:57.108Z,15.93
2023-08-29T13:03:24.031Z,15.94
2023-08-29T13:05:52.627Z,15.96
2023-08-29T13:08:19.975Z,15.97
2023-08-29T13:10:46.922Z,15.97
2023-08-29T13:13:13.865Z,16.02
2023-08-29T13:15:50.493Z,16.06
2023-08-29T13:18:19.260Z,16.13
2023-08-29T13:20:46.184Z,16.17
2023-08-29T13:23:13.008Z,16.17
2023-08-29T13:25:39.916Z,16.19
2023-08-29T13:28:07.262Z,16.23
2023-08-29T13:30:34.475Z,16.23
2023-08-29T13:33:01.554Z,16.21
2023-08-29T13:35:28.547Z,16.20
2023-08-29T13:37:55.389Z,16.19
2023-08-29T13:40:22.237Z,16.15
2023-08-29T13:42:50.296Z,16.12
2023-08-29T13:45:17.248Z,16.09
2023-08-29T13:47:45.528Z,16.05
2023-08-29T13:50:12.576Z,16.02
2023-08-29T13:52:39.416Z,15.97
2023-08-29T13:55:06.941Z,15.96
2023-08-29T13:57:33.918Z,15.96
2023-08-29T14:00:00.746Z,15.96
2023-08-29T14:02:28.209Z,15.97
2023-08-29T14:04:55.162Z,16.00
2023-08-29T14:07:22.094Z,16.02
2023-08-29T14:09:49.051Z,16.03
2023-08-29T14:12:15.877Z,16.01
2023-08-29T14:14:42.919Z,16.00
2023-08-29T14:17:09.761Z,16.02
2023-08-29T14:19:36.612Z,16.04
2023-08-29T14:22:05.332Z,16.09
2023-08-29T14:24:32.686Z,16.13
2023-08-29T14:26:59.704Z,16.17
2023-08-29T14:29:31.029Z,16.22
2023-08-29T14:31:58.734Z,16.27
2023-08-29T14:34:25.639Z,16.31
2023-08-29T14:36:52.782Z,16.35
2023-08-29T14:39:19.625Z,16.33
2023-08-29T14:41:46.623Z,16.34
2023-08-29T14:44:13.628Z,16.37
2023-08-29T14:46:41.787Z,16.42
2023-08-29T14:49:08.628Z,16.47
2023-08-29T14:51:35.467Z,16.55
2023-08-29T14:54:04.041Z,16.58
2023-08-29T14:56:31.819Z,16.59
2023-08-29T14:59:00.333Z,16.59
2023-08-29T15:01:27.568Z,16.56
2023-08-29T15:03:54.782Z,16.53
2023-08-29T15:06:21.742Z,16.50
2023-08-29T15:08:48.882Z,16.49
2023-08-29T15:11:16.245Z,16.47
2023-08-29T15:13:43.097Z,16.44
2023-08-29T15:16:10.077Z,16.42
2023-08-29T15:18:37.078Z,16.41
2023-08-29T15:21:04.066Z,16.38
2023-08-29T15:23:30.999Z,16.31
2023-08-29T15:25:58.522Z,16.25
2023-08-29T15:28:34.777Z,16.20
2023-08-29T15:31:03.774Z,16.17
2023-08-29T15:33:31.530Z,16.16
2023-08-29T15:35:58.993Z,16.17
2023-08-29T15:38:26.276Z,16.19
2023-08-29T15:40:55.916Z,16.21
2023-08-29T15:43:26.706Z,16.21
2023-08-29T15:45:54.890Z,16.19
2023-08-29T15:48:22.117Z,16.17
2023-08-29T15:50:49.254Z,16.16
2023-08-29T15:53:16.394Z,16.12
2023-08-29T15:55:44.475Z,16.09
2023-08-29T15:58:14.386Z,16.08
2023-08-29T16:00:41.328Z,16.09
2023-08-29T16:03:08.795Z,16.09
2023-08-29T16:05:36.782Z,16.10
2023-08-29T16:08:04.209Z,16.11
2023-08-29T16:10:31.273Z,16.11
2023-08-29T16:12:58.300Z,16.11
2023-08-29T16:15:25.252Z,16.09
2023-08-29T16:17:52.258Z,16.07
2023-08-29T16:20:19.547Z,16.06
2023-08-29T16:22:47.415Z,16.06
2023-08-29T16:25:15.170Z,16.04
2023-08-29T16:27:42.113Z,16.03
2023-08-29T16:30:11.300Z,16.02
2023-08-29T16:32:40.604Z,16.01
2023-08-29T16:35:08.369Z,15.98
2023-08-29T16:37:38.036Z,15.96
2023-08-29T16:40:07.028Z,15.93
2023-08-29T16:42:33.822Z,15.91
2023-08-29T16:45:00.959Z,15.90
2023-08-29T16:47:27.917Z,15.88
2023-08-29T16:49:54.946Z,15.86
2023-08-29T16:52:21.786Z,15.83
2023-08-29T16:54:48.834Z,15.80
2023-08-29T16:57:17.636Z,15.77
2023-08-29T16:59:59.117Z,15.75
2023-08-29T17:02:26.975Z,15.71
2023-08-29T17:04:55.050Z,15.66
2023-08-29T17:07:22.396Z,15.61
2023-08-29T17:09:49.340Z,15.59
2023-08-29T17:12:20.998Z,15.58
2023-08-29T17:14:50.088Z,15.56
2023-08-29T17:17:17.339Z,15.54
2023-08-29T17:19:44.586Z,15.51
2023-08-29T17:22:11.542Z,15.48
2023-08-29T17:24:38.893Z,15.45
2023-08-29T17:27:06.645Z,15.43
2023-08-29T17:29:33.593Z,15.44
2023-08-29T17:32:00.760Z,15.43
2023-08-29T17:34:28.091Z,15.41
2023-08-29T17:36:57.289Z,15.40
2023-08-29T17:39:24.133Z,15.38
2023-08-29T17:41:50.977Z,15.39
2023-08-29T17:44:17.812Z,15.40
2023-08-29T17:46:44.754Z,15.40
2023-08-29T17:49:11.910Z,15.40
2023-08-29T17:51:39.566Z,15.41
2023-08-29T17:54:06.616Z,15.45
2023-08-29T17:56:33.655Z,15.45
2023-08-29T17:59:00.600Z,15.44
2023-08-29T18:01:27.855Z,15.42
2023-08-29T18:03:55.768Z,15.43
2023-08-29T18:06:25.481Z,15.40
2023-08-29T18:08:54.524Z,15.38
2023-08-29T18:11:22.384Z,15.36
2023-08-29T18:13:49.327Z,15.36
2023-08-29T18:16:16.806Z,15.33
2023-08-29T18:18:44.134Z,15.30
2023-08-29T18:21:12.921Z,15.29
2023-08-29T18:23:39.864Z,15.26
2023-08-29T18:26:08.347Z,15.22
2023-08-29T18:28:35.503Z,15.22
2023-08-29T18:31:06.076Z,15.21
2023-08-29T18:33:35.729Z,15.22
2023-08-29T18:36:02.897Z,15.24
2023-08-29T18:38:30.947Z,15.25
2023-08-29T18:40:58.714Z,15.23
2023-08-29T18:43:25.672Z,15.22
2023-08-29T18:45:52.537Z,15.23
2023-08-29T18:48:20.973Z,15.24
2023-08-29T18:50:47.924Z,15.24
2023-08-29T18:53:14.869Z,15.25
2023-08-29T18:55:42.652Z,15.26
2023-08-29T18:58:09.935Z,15.27
2023-08-29T19:00:38.270Z,15.28
2023-08-29T19:03:05.350Z,15.28
2023-08-29T19:05:34.743Z,15.29
2023-08-29T19:08:02.051Z,15.32
2023-08-29T19:10:28.893Z,15.35
2023-08-29T19:12:55.957Z,15.38
2023-08-29T19:15:22.986Z,15.41
2023-08-29T19:17:49.838Z,15.42
2023-08-29T19:20:18.420Z,15.43
2023-08-29T19:22:45.458Z,15.44
2023-08-29T19:25:12.396Z,15.44
2023-08-29T19:27:39.244Z,15.45
2023-08-29T19:30:10.179Z,15.45
2023-08-29T19:32:37.357Z,15.45
2023-08-29T19:35:04.918Z,15.43
2023-08-29T19:37:32.851Z,15.38
2023-08-29T19:39:59.799Z,15.37
2023-08-29T19:42:26.636Z,15.35
2023-08-29T19:44:53.381Z,15.32
2023-08-29T19:47:24.113Z,15.29
2023-08-29T19:49:51.463Z,15.25
2023-08-29T19:52:18.519Z,15.23
2023-08-29T19:54:45.397Z,15.22
2023-08-29T19:57:13.418Z,15.21
2023-08-29T19:59:40.630Z,15.19
2023-08-29T20:02:10.069Z,15.16
2023-08-29T20:04:37.215Z,15.14
2023-08-29T20:07:04.384Z,15.14
2023-08-29T20:09:32.129Z,15.12
2023-08-29T20:11:59.076Z,15.10
2023-08-29T20:14:29.599Z,15.09
2023-08-29T20:16:59.598Z,15.09
2023-08-29T20:19:26.558Z,15.08
2023-08-29T20:21:53.518Z,15.05
2023-08-29T20:24:24.031Z,15.04
2023-08-29T20:26:51.914Z,15.02
2023-08-29T20:29:18.851Z,14.98
2023-08-29T20:31:45.800Z,14.98
2023-08-29T20:34:12.761Z,14.98
2023-08-29T20:36:39.679Z,14.99
2023-08-29T20:39:07.438Z,14.99
2023-08-29T20:41:34.482Z,14.99
2023-08-29T20:44:01.338Z,14.98
2023-08-29T20:46:28.221Z,14.97
2023-08-29T20:48:55.413Z,14.97
2023-08-29T20:51:22.575Z,14.96
2023-08-29T20:53:49.513Z,14.98
2023-08-29T20:56:16.451Z,14.97
2023-08-29T20:58:43.593Z,14.97
2023-08-29T21:01:10.440Z,14.95
2023-08-29T21:03:37.334Z,14.95
2023-08-29T21:06:04.328Z,14.94
2023-08-29T21:08:31.386Z,14.93
2023-08-29T21:10:58.416Z,14.91
2023-08-29T21:13:25.464Z,14.92
2023-08-29T21:15:52.407Z,14.93
2023-08-29T21:18:20.002Z,14.93
2023-08-29T21:20:54.384Z,14.91
2023-08-29T21:23:21.940Z,14.89
2023-08-29T21:25:49.603Z,14.87
2023-08-29T21:28:20.949Z,14.84
2023-08-29T21:30:47.798Z,14.82
2023-08-29T21:33:14.942Z,14.82
2023-08-29T21:35:43.112Z,14.82
2023-08-29T21:38:11.690Z,14.81
2023-08-29T21:40:40.397Z,14.79
2023-08-29T21:43:12.236Z,14.79
2023-08-29T21:45:41.872Z,14.81
2023-08-29T21:48:10.436Z,14.82
2023-08-29T21:50:42.387Z,14.81
2023-08-29T21:53:10.588Z,14.81
2023-08-29T21:55:39.049Z,14.81
2023-08-29T21:58:07.489Z,14.82
2023-08-29T22:00:35.081Z,14.82
2023-08-29T22:03:02.666Z,14.82
2023-08-29T22:05:31.431Z,14.82
2023-08-29T22:07:59.091Z,14.82
2023-08-29T22:10:26.364Z,14.82
2023-08-29T22:12:53.386Z,14.82
2023-08-29T22:15:20.331Z,14.83
2023-08-29T22:17:47.206Z,14.83
2023-08-29T22:20:14.656Z,14.84
2023-08-29T22:22:41.891Z,14.86
2023-08-29T22:25:09.735Z,14.88
2023-08-29T22:27:37.097Z,14.85
2023-08-29T22:30:05.542Z,14.83
2023-08-29T22:32:34.040Z,14.81
2023-08-29T22:35:02.732Z,14.79
2023-08-29T22:37:29.581Z,14.79
2023-08-29T22:39:56.617Z,14.79
2023-08-29T22:42:23.667Z,14.79
2023-08-29T22:44:50.714Z,14.77
2023-08-29T22:47:18.175Z,14.76
2023-08-29T22:49:45.832Z,14.74
2023-08-29T22:52:13.296Z,14.75
2023-08-29T22:54:41.561Z,14.74
2023-08-29T22:57:08.505Z,14.75
2023-08-29T22:59:35.564Z,14.75
2023-08-29T23:02:06.485Z,14.72
2023-08-29T23:04:34.562Z,14.68
2023-08-29T23:07:07.910Z,14.65
2023-08-29T23:09:36.222Z,14.62
2023-08-29T23:12:04.208Z,14.59
2023-08-29T23:14:31.052Z,14.56
2023-08-29T23:16:58.088Z,14.57
2023-08-29T23:19:25.855Z,14.57
2023-08-29T23:21:53.965Z,14.55
2023-08-29T23:24:21.289Z,14.55
2023-08-29T23:26:51.394Z,14.56
2023-08-29T23:29:19.657Z,14.57
2023-08-29T23:31:46.920Z,14.55
2023-08-29T23:34:13.751Z,14.54
2023-08-29T23:36:40.592Z,14.54
2023-08-29T23:39:10.099Z,14.58
2023-08-29T23:41:36.945Z,14.58
2023-08-29T23:44:04.226Z,14.58
2023-08-29T23:46:31.771Z,14.55
2023-08-29T23:48:58.896Z,14.54
2023-08-29T23:51:25.939Z,14.52
2023-08-29T23:53:52.991Z,14.50
2023-08-29T23:56:19.945Z,14.51
2023-08-29T23:58:46.904Z,14.52
